Time;durP1;ratioP1;P1;durP2;ratioP2;P2;SDS_P1;SDS_P2;PMS_P1;PMS_P2;Temp;Humidity;BMP_temperature;BMP_pressure;BME280_temperature;BME280_humidity;BME280_pressure;Samples;Min_cycle;Max_cycle;Signal;HPM_P1;HPM_P2
2024/01/27 00:01:30;;;;;;;3.90;1.83;;;1.90;99.90;;;;;;4970699;28;20053;-84
2024/01/27 00:03:56;;;;;;;8.17;2.63;;;1.90;99.90;;;;;;4971108;28;20051;-85
2024/01/27 00:06:21;;;;;;;4.57;2.37;;;1.90;99.90;;;;;;4971164;28;20434;-85
2024/01/27 00:08:47;;;;;;;6.57;2.10;;;1.80;99.90;;;;;;4971118;28;20085;-85
2024/01/27 00:11:13;;;;;;;7.70;2.33;;;1.80;99.90;;;;;;4972416;28;20529;-85
2024/01/27 00:13:38;;;;;;;5.17;2.20;;;1.70;99.90;;;;;;4974598;28;20035;-85
2024/01/27 00:16:04;;;;;;;6.63;2.20;;;1.70;99.90;;;;;;4977901;28;20031;-85
2024/01/27 00:18:30;;;;;;;7.87;2.37;;;1.70;99.90;;;;;;4974555;28;20035;-85
2024/01/27 00:20:55;;;;;;;6.83;2.30;;;1.60;99.90;;;;;;4977621;28;20130;-85
2024/01/27 00:23:21;;;;;;;6.37;2.27;;;1.60;99.90;;;;;;4975584;28;20039;-85
2024/01/27 00:25:47;;;;;;;7.83;2.50;;;1.60;99.90;;;;;;4981007;28;20035;-85
2024/01/27 00:28:13;;;;;;;4.43;2.30;;;1.60;99.90;;;;;;4974236;28;20038;-85
2024/01/27 00:30:38;;;;;;;8.67;2.53;;;1.60;99.90;;;;;;4975401;28;20031;-85
2024/01/27 00:33:04;;;;;;;6.77;2.20;;;1.50;99.90;;;;;;4973747;28;20054;-85
2024/01/27 00:35:30;;;;;;;7.10;2.93;;;1.50;99.90;;;;;;4971015;28;20057;-85
2024/01/27 00:37:56;;;;;;;9.40;2.63;;;1.50;99.90;;;;;;4972267;28;20019;-85
2024/01/27 00:40:22;;;;;;;7.07;2.30;;;1.50;99.90;;;;;;4972536;28;20014;-85
2024/01/27 00:42:48;;;;;;;5.00;2.20;;;1.50;99.90;;;;;;4972053;28;20113;-85
2024/01/27 00:45:13;;;;;;;5.73;2.10;;;1.40;99.90;;;;;;4971580;28;20179;-85
2024/01/27 00:47:39;;;;;;;5.77;2.00;;;1.50;99.90;;;;;;4971234;28;20067;-85
2024/01/27 00:50:05;;;;;;;5.23;1.93;;;1.40;99.90;;;;;;4973468;28;20037;-85
2024/01/27 00:52:31;;;;;;;8.00;2.40;;;1.40;99.90;;;;;;4972517;28;20035;-85
2024/01/27 00:54:57;;;;;;;14.70;3.77;;;1.30;99.90;;;;;;4972775;28;20035;-85
2024/01/27 00:57:22;;;;;;;8.00;2.70;;;1.30;99.90;;;;;;4974154;28;20115;-85
2024/01/27 00:59:48;;;;;;;5.93;2.20;;;1.30;99.90;;;;;;4973741;28;22373;-85
2024/01/27 01:02:13;;;;;;;7.93;2.40;;;1.30;99.90;;;;;;4975498;28;20098;-85
2024/01/27 01:04:39;;;;;;;6.03;2.83;;;1.20;99.90;;;;;;4975995;28;20045;-85
2024/01/27 01:07:04;;;;;;;7.73;2.87;;;1.20;99.90;;;;;;4974763;28;20125;-85
2024/01/27 01:09:30;;;;;;;6.50;2.67;;;1.20;99.90;;;;;;4974149;28;20121;-85
2024/01/27 01:11:55;;;;;;;7.43;2.70;;;1.10;99.90;;;;;;4973026;28;20031;-85
2024/01/27 01:14:21;;;;;;;6.83;3.10;;;1.10;99.90;;;;;;4975054;28;20105;-85
2024/01/27 01:16:47;;;;;;;6.27;2.83;;;1.10;99.90;;;;;;4974933;28;20138;-85
2024/01/27 01:19:13;;;;;;;4.60;2.70;;;1.10;99.90;;;;;;4976030;28;20173;-85
2024/01/27 01:21:38;;;;;;;4.80;2.70;;;1.10;99.90;;;;;;4979572;28;20045;-85
2024/01/27 01:24:04;;;;;;;8.07;2.50;;;1.10;99.90;;;;;;4979093;28;20042;-86
2024/01/27 01:26:30;;;;;;;6.43;2.37;;;1.10;99.90;;;;;;4979530;28;20109;-85
2024/01/27 01:28:57;;;;;;;6.87;2.50;;;1.10;99.90;;;;;;4959329;28;20490;-85
2024/01/27 01:31:22;;;;;;;5.27;2.50;;;1.10;99.90;;;;;;4975849;28;20011;-85
2024/01/27 01:33:48;;;;;;;8.67;2.70;;;1.00;99.90;;;;;;4976257;28;20022;-85
2024/01/27 01:36:14;;;;;;;4.83;2.40;;;1.00;99.90;;;;;;4974026;28;20737;-85
2024/01/27 01:38:40;;;;;;;5.10;2.30;;;1.00;99.90;;;;;;4976822;28;20027;-85
2024/01/27 01:41:06;;;;;;;5.43;2.43;;;1.00;99.90;;;;;;4960182;28;20051;-85
2024/01/27 01:43:32;;;;;;;5.33;2.40;;;1.00;99.90;;;;;;4977446;28;20039;-85
2024/01/27 01:45:57;;;;;;;6.73;2.77;;;0.90;99.90;;;;;;4976403;28;20046;-85
2024/01/27 01:48:23;;;;;;;10.67;3.47;;;0.90;99.90;;;;;;4977774;28;20030;-85
2024/01/27 01:50:49;;;;;;;6.40;2.33;;;0.90;99.90;;;;;;4977486;28;20126;-85
2024/01/27 01:53:15;;;;;;;7.30;2.70;;;0.90;99.90;;;;;;4975360;28;20037;-85
2024/01/27 01:55:41;;;;;;;8.23;3.00;;;0.90;99.90;;;;;;4976247;28;20031;-85
2024/01/27 01:58:06;;;;;;;8.23;2.53;;;0.90;99.90;;;;;;4976365;28;20030;-85
2024/01/27 02:00:32;;;;;;;4.47;2.53;;;0.90;99.90;;;;;;4976784;28;20035;-85
2024/01/27 02:02:58;;;;;;;4.63;2.40;;;0.90;99.90;;;;;;4976932;28;20030;-85
2024/01/27 02:05:24;;;;;;;8.70;2.97;;;0.90;99.90;;;;;;4961176;28;20073;-85
2024/01/27 02:07:50;;;;;;;11.67;2.33;;;0.90;99.90;;;;;;4976981;28;20054;-85
2024/01/27 02:10:18;;;;;;;11.80;2.40;;;0.90;99.90;;;;;;4975980;28;20037;-85
2024/01/27 02:12:44;;;;;;;7.43;2.90;;;0.90;99.90;;;;;;4977131;28;20059;-85
2024/01/27 02:15:14;;;;;;;8.70;2.70;;;0.90;99.90;;;;;;4959511;28;20045;-84
2024/01/27 02:17:40;;;;;;;7.50;2.17;;;0.90;99.90;;;;;;4976383;28;20061;-85
2024/01/27 02:20:09;;;;;;;6.97;2.37;;;0.90;99.90;;;;;;4977234;28;20022;-85
2024/01/27 02:22:35;;;;;;;6.47;2.40;;;0.80;99.90;;;;;;4976735;28;20022;-85
2024/01/27 02:25:01;;;;;;;5.03;2.10;;;0.80;99.90;;;;;;4977110;28;21057;-85
2024/01/27 02:27:27;;;;;;;6.93;2.43;;;0.80;99.90;;;;;;4976834;28;20031;-85
2024/01/27 02:29:52;;;;;;;12.10;3.50;;;0.80;99.90;;;;;;4961807;28;20041;-84
2024/01/27 02:32:18;;;;;;;6.07;2.50;;;0.80;99.90;;;;;;4976467;28;20042;-84
2024/01/27 02:34:43;;;;;;;12.43;2.63;;;0.70;99.90;;;;;;4978568;28;20103;-85
2024/01/27 02:37:09;;;;;;;8.47;2.43;;;0.70;99.90;;;;;;4978423;28;20007;-85
2024/01/27 02:39:35;;;;;;;10.30;2.60;;;0.70;99.90;;;;;;4978143;28;20051;-84
2024/01/27 02:42:00;;;;;;;6.57;2.10;;;0.70;99.90;;;;;;4975816;28;20046;-85
2024/01/27 02:44:26;;;;;;;9.30;2.70;;;0.70;99.90;;;;;;4977120;28;20041;-85
2024/01/27 02:46:51;;;;;;;4.83;2.20;;;0.70;99.90;;;;;;4977568;28;20038;-84
2024/01/27 02:49:17;;;;;;;7.50;2.43;;;0.60;99.90;;;;;;4977390;28;20173;-85
2024/01/27 02:51:43;;;;;;;8.00;2.20;;;0.60;99.90;;;;;;4976743;28;20030;-85
2024/01/27 02:54:09;;;;;;;5.30;2.40;;;0.70;99.90;;;;;;4976399;28;20039;-85
2024/01/27 02:56:35;;;;;;;7.07;2.37;;;0.60;99.90;;;;;;4975544;28;20070;-84
2024/01/27 02:59:00;;;;;;;6.97;2.50;;;0.60;99.90;;;;;;4975513;28;20162;-85
2024/01/27 03:01:26;;;;;;;5.20;2.60;;;0.60;99.90;;;;;;4975449;28;20098;-84
2024/01/27 03:03:52;;;;;;;9.53;3.00;;;0.60;99.90;;;;;;4974999;28;20069;-84
2024/01/27 03:06:17;;;;;;;7.00;2.60;;;0.60;99.90;;;;;;4975466;28;20035;-85
2024/01/27 03:08:43;;;;;;;8.63;2.53;;;0.60;99.90;;;;;;4976559;28;20027;-85
2024/01/27 03:11:08;;;;;;;8.77;2.97;;;0.70;99.90;;;;;;4977747;28;20190;-84
2024/01/27 03:13:34;;;;;;;8.17;2.50;;;0.70;99.90;;;;;;4975361;28;20034;-85
2024/01/27 03:16:00;;;;;;;6.63;2.30;;;0.70;99.90;;;;;;4977367;28;20062;-84
2024/01/27 03:18:26;;;;;;;7.23;2.13;;;0.80;99.90;;;;;;4975424;28;20035;-84
2024/01/27 03:20:51;;;;;;;10.10;2.60;;;0.80;99.90;;;;;;4976029;28;20031;-84
2024/01/27 03:23:17;;;;;;;9.37;2.60;;;0.80;99.90;;;;;;4977129;28;20035;-85
2024/01/27 03:25:42;;;;;;;7.90;2.50;;;0.80;99.90;;;;;;4976322;28;20029;-85
2024/01/27 03:28:08;;;;;;;10.33;2.90;;;0.80;99.90;;;;;;4975509;28;21193;-84
2024/01/27 03:30:34;;;;;;;14.27;3.37;;;0.80;99.90;;;;;;4976047;28;20034;-85
2024/01/27 03:32:59;;;;;;;11.70;3.23;;;0.80;99.90;;;;;;4976861;28;20019;-85
2024/01/27 03:35:25;;;;;;;12.30;3.30;;;0.80;99.90;;;;;;4974450;28;20027;-85
2024/01/27 03:37:51;;;;;;;11.27;3.93;;;0.80;99.90;;;;;;4974486;28;20038;-85
2024/01/27 03:40:17;;;;;;;15.87;3.83;;;0.80;99.90;;;;;;4958137;28;20047;-85
2024/01/27 03:42:43;;;;;;;11.63;4.17;;;0.80;99.90;;;;;;4975028;28;20041;-84
2024/01/27 03:45:08;;;;;;;10.40;3.30;;;0.80;99.90;;;;;;4975646;28;20031;-85
2024/01/27 03:47:34;;;;;;;13.97;3.67;;;0.80;99.90;;;;;;4980608;28;20033;-84
2024/01/27 03:50:00;;;;;;;7.40;3.30;;;0.80;99.90;;;;;;4977474;28;20511;-84
2024/01/27 03:52:25;;;;;;;6.57;2.77;;;0.80;99.90;;;;;;4977584;28;20057;-85
2024/01/27 03:54:51;;;;;;;9.07;3.00;;;0.80;99.90;;;;;;4978760;28;20030;-85
2024/01/27 03:57:16;;;;;;;11.27;2.50;;;0.80;99.90;;;;;;4962918;28;20023;-84
2024/01/27 03:59:42;;;;;;;12.87;2.80;;;0.80;99.90;;;;;;4979530;28;20022;-85
2024/01/27 04:02:07;;;;;;;9.00;2.30;;;0.80;99.90;;;;;;4977972;28;20834;-84
2024/01/27 04:04:33;;;;;;;8.70;2.43;;;0.90;99.90;;;;;;4978581;28;20480;-84
2024/01/27 04:06:58;;;;;;;10.23;2.60;;;0.90;99.90;;;;;;4978420;28;20035;-84
2024/01/27 04:09:24;;;;;;;13.70;2.57;;;0.90;99.90;;;;;;4977313;28;20039;-85
2024/01/27 04:11:50;;;;;;;8.90;2.40;;;0.90;99.90;;;;;;4975751;28;20049;-85
2024/01/27 04:14:16;;;;;;;9.10;2.87;;;0.90;99.90;;;;;;4976773;28;20027;-84
2024/01/27 04:16:42;;;;;;;6.83;2.20;;;0.90;99.90;;;;;;4977415;28;20096;-85
2024/01/27 04:19:07;;;;;;;6.00;2.13;;;0.90;99.90;;;;;;4976544;28;20061;-85
2024/01/27 04:21:33;;;;;;;6.10;2.10;;;0.90;99.90;;;;;;4978882;28;20032;-84
2024/01/27 04:23:58;;;;;;;11.97;3.27;;;1.00;99.90;;;;;;4979217;28;20149;-84
2024/01/27 04:26:24;;;;;;;8.70;2.30;;;0.90;99.90;;;;;;4977799;28;20030;-84
2024/01/27 04:28:49;;;;;;;9.27;2.40;;;0.90;99.90;;;;;;4977809;28;20039;-85
2024/01/27 04:31:15;;;;;;;7.33;2.77;;;0.90;99.90;;;;;;4977025;28;20117;-84
2024/01/27 04:33:40;;;;;;;7.33;2.53;;;0.90;99.90;;;;;;4976079;28;20133;-85
2024/01/27 04:36:10;;;;;;;7.73;2.57;;;0.80;99.90;;;;;;4975299;28;20043;-85
2024/01/27 04:38:35;;;;;;;7.20;2.50;;;0.80;99.90;;;;;;4977255;28;20031;-85
2024/01/27 04:41:02;;;;;;;8.87;2.40;;;0.80;99.90;;;;;;4978369;28;20524;-84
2024/01/27 04:43:29;;;;;;;13.70;3.60;;;0.80;99.90;;;;;;4976717;28;20045;-85
2024/01/27 04:45:54;;;;;;;9.90;3.53;;;0.80;99.90;;;;;;4977560;28;20043;-85
2024/01/27 04:48:20;;;;;;;4.60;2.40;;;0.70;99.90;;;;;;4981477;28;20482;-84
2024/01/27 04:50:46;;;;;;;4.73;2.40;;;0.70;99.90;;;;;;4978009;28;20026;-85
2024/01/27 04:53:12;;;;;;;5.83;2.33;;;0.70;99.90;;;;;;4981188;28;20038;-84
2024/01/27 04:55:37;;;;;;;8.07;2.50;;;0.70;99.90;;;;;;4976164;28;20104;-85
2024/01/27 04:58:04;;;;;;;9.20;2.40;;;0.60;99.90;;;;;;4974780;28;20069;-85
2024/01/27 05:00:30;;;;;;;6.60;2.60;;;0.60;99.90;;;;;;4975603;28;20763;-84
2024/01/27 05:02:57;;;;;;;8.60;2.60;;;0.50;99.90;;;;;;4978064;28;20062;-85
2024/01/27 05:05:23;;;;;;;8.60;3.70;;;0.50;99.90;;;;;;4965027;28;20025;-85
2024/01/27 05:07:48;;;;;;;6.23;2.70;;;0.50;99.90;;;;;;4979922;28;20031;-84
2024/01/27 05:10:16;;;;;;;7.93;2.83;;;0.50;99.90;;;;;;4980762;28;20061;-85
2024/01/27 05:12:41;;;;;;;9.03;2.33;;;0.40;99.90;;;;;;4978921;28;20034;-85
2024/01/27 05:15:08;;;;;;;9.53;2.70;;;0.40;99.90;;;;;;4975558;28;20031;-85
2024/01/27 05:17:33;;;;;;;7.63;3.37;;;0.30;99.90;;;;;;4977185;28;20111;-84
2024/01/27 05:19:59;;;;;;;9.00;2.77;;;0.30;99.90;;;;;;4976075;28;20074;-84
2024/01/27 05:22:25;;;;;;;9.33;2.63;;;0.30;99.90;;;;;;4974346;28;20051;-84
2024/01/27 05:24:50;;;;;;;8.57;2.60;;;0.30;99.90;;;;;;4974573;28;20097;-84
2024/01/27 05:27:16;;;;;;;11.23;2.73;;;0.20;99.90;;;;;;4975629;28;20027;-85
2024/01/27 05:29:42;;;;;;;6.30;2.50;;;0.20;99.90;;;;;;4973705;28;20041;-84
2024/01/27 05:32:23;;;;;;;8.33;2.97;;;0.20;99.90;;;;;;4977002;28;20030;-85
2024/01/27 05:34:48;;;;;;;7.43;3.00;;;0.20;99.90;;;;;;4978241;28;20034;-86
2024/01/27 05:37:14;;;;;;;8.70;2.60;;;0.20;99.90;;;;;;4977779;28;20035;-86
2024/01/27 05:39:39;;;;;;;8.30;2.80;;;0.10;99.90;;;;;;4974629;28;20023;-85
2024/01/27 05:42:05;;;;;;;9.93;2.90;;;0.10;99.90;;;;;;4972682;28;20054;-85
2024/01/27 05:44:31;;;;;;;6.80;3.30;;;0.10;99.90;;;;;;4972379;28;20041;-85
2024/01/27 05:46:56;;;;;;;10.20;3.50;;;0.10;99.90;;;;;;4976829;28;20141;-87
2024/01/27 05:49:21;;;;;;;8.17;2.43;;;0.10;99.90;;;;;;4977177;28;20038;-87
2024/01/27 05:51:48;;;;;;;11.00;3.10;;;0.10;99.90;;;;;;4979576;28;20026;-87
2024/01/27 05:54:16;;;;;;;6.60;2.60;;;0.10;99.90;;;;;;4978131;28;20050;-87
2024/01/27 05:56:42;;;;;;;10.20;2.83;;;0.10;99.90;;;;;;4976036;28;20030;-88
2024/01/27 05:59:07;;;;;;;10.23;3.30;;;0.10;99.90;;;;;;4978284;28;20095;-86
2024/01/27 06:01:33;;;;;;;7.50;2.70;;;0.00;99.90;;;;;;4977992;28;20029;-88
2024/01/27 06:03:58;;;;;;;6.87;3.30;;;0.00;99.90;;;;;;4975648;28;20070;-87
2024/01/27 06:06:24;;;;;;;8.43;3.10;;;0.00;99.90;;;;;;4975549;28;20066;-86
2024/01/27 06:08:49;;;;;;;9.03;3.00;;;0.00;99.90;;;;;;4967498;28;20039;-86
2024/01/27 06:11:26;;;;;;;6.83;2.73;;;0.00;99.90;;;;;;4961128;28;20030;-87
2024/01/27 06:13:51;;;;;;;9.33;3.33;;;0.00;99.90;;;;;;4961530;28;21474;-90
2024/01/27 06:16:20;;;;;;;11.60;3.57;;;0.00;99.90;;;;;;4962931;28;20033;-90
2024/01/27 06:18:46;;;;;;;12.17;3.30;;;-0.10;99.90;;;;;;4962602;28;20494;-90
2024/01/27 06:21:11;;;;;;;8.97;3.20;;;-0.10;99.90;;;;;;4963207;28;20215;-90
2024/01/27 06:23:37;;;;;;;8.70;3.40;;;-0.10;99.90;;;;;;4960602;28;20482;-90
2024/01/27 06:26:09;;;;;;;15.13;3.40;;;-0.10;99.90;;;;;;4962886;28;20102;-90
2024/01/27 06:28:36;;;;;;;10.30;3.20;;;-0.10;99.90;;;;;;4961483;28;20023;-90
2024/01/27 06:31:02;;;;;;;10.80;3.30;;;-0.20;99.90;;;;;;4961986;28;20026;-92
2024/01/27 06:33:28;;;;;;;13.17;4.43;;;-0.20;99.90;;;;;;4959961;28;20097;-89
2024/01/27 06:35:54;;;;;;;7.13;3.37;;;-0.20;99.90;;;;;;4944445;28;20046;-90
2024/01/27 06:38:19;;;;;;;10.03;4.07;;;-0.20;99.90;;;;;;4960777;28;20062;-89
2024/01/27 06:40:45;;;;;;;9.53;3.47;;;-0.30;99.90;;;;;;4961521;28;20041;-89
2024/01/27 06:43:13;;;;;;;6.93;3.37;;;-0.30;99.90;;;;;;4960041;28;20746;-90
2024/01/27 06:45:39;;;;;;;11.97;3.40;;;-0.20;99.90;;;;;;4960402;28;20069;-90
2024/01/27 06:48:06;;;;;;;8.80;3.43;;;-0.30;99.90;;;;;;4959828;28;20106;-90
2024/01/27 06:50:32;;;;;;;9.77;3.87;;;-0.30;99.90;;;;;;4959669;28;20030;-90
2024/01/27 06:52:57;;;;;;;7.33;3.50;;;-0.30;99.90;;;;;;4959835;28;20023;-90
2024/01/27 06:55:23;;;;;;;12.37;3.37;;;-0.30;99.90;;;;;;4961283;28;20114;-90
2024/01/27 06:57:48;;;;;;;10.70;4.00;;;-0.30;99.90;;;;;;4976999;28;20023;-91
2024/01/27 07:00:14;;;;;;;11.63;4.67;;;-0.40;99.90;;;;;;4966301;28;20046;-89
2024/01/27 07:02:43;;;;;;;12.07;3.53;;;-0.30;99.90;;;;;;4975638;28;20031;-91
2024/01/27 07:05:09;;;;;;;9.07;4.10;;;-0.40;99.90;;;;;;4971062;28;20038;-93
2024/01/27 07:07:35;;;;;;;9.63;3.93;;;-0.40;99.90;;;;;;4976696;28;20049;-90
2024/01/27 07:10:01;;;;;;;10.30;3.50;;;-0.40;99.90;;;;;;4968413;28;20031;-91
2024/01/27 07:12:27;;;;;;;9.33;3.77;;;-0.40;99.90;;;;;;4968345;28;20031;-91
2024/01/27 07:14:54;;;;;;;11.50;4.03;;;-0.40;99.90;;;;;;4965576;28;20026;-90
2024/01/27 07:17:20;;;;;;;8.77;4.10;;;-0.40;99.90;;;;;;4967214;28;20031;-90
2024/01/27 07:19:46;;;;;;;10.37;4.67;;;-0.40;99.90;;;;;;4968274;28;20027;-91
2024/01/27 07:22:12;;;;;;;12.00;4.10;;;-0.40;99.90;;;;;;4968629;28;20026;-91
2024/01/27 07:24:37;;;;;;;17.43;5.87;;;-0.40;99.90;;;;;;4965148;28;20086;-91
2024/01/27 07:27:03;;;;;;;11.43;4.30;;;-0.40;99.90;;;;;;4962961;28;20030;-91
2024/01/27 07:29:29;;;;;;;14.60;4.37;;;-0.40;99.90;;;;;;4963851;28;20031;-91
2024/01/27 07:31:55;;;;;;;11.83;4.00;;;-0.40;99.90;;;;;;4962175;28;20027;-90
2024/01/27 07:34:20;;;;;;;10.73;4.30;;;-0.40;99.90;;;;;;4961394;28;20034;-90
2024/01/27 07:36:48;;;;;;;10.30;4.47;;;-0.30;99.90;;;;;;4959900;28;20146;-90
2024/01/27 07:39:13;;;;;;;15.60;4.90;;;-0.30;99.90;;;;;;4960486;28;20022;-90
2024/01/27 07:41:39;;;;;;;20.40;7.63;;;-0.30;99.90;;;;;;4962003;28;20081;-89
2024/01/27 07:44:11;;;;;;;17.53;5.83;;;-0.30;99.90;;;;;;4960037;28;20031;-90
2024/01/27 07:46:41;;;;;;;11.30;5.27;;;-0.20;99.90;;;;;;4959223;28;20394;-89
2024/01/27 07:49:08;;;;;;;13.67;5.10;;;-0.20;99.90;;;;;;4959550;28;20132;-89
2024/01/27 07:51:34;;;;;;;12.27;5.50;;;-0.20;99.90;;;;;;4959914;28;20031;-89
2024/01/27 07:54:00;;;;;;;15.07;6.73;;;-0.20;99.90;;;;;;4959718;28;20035;-90
2024/01/27 07:56:26;;;;;;;13.60;6.07;;;-0.10;99.90;;;;;;4959696;28;20678;-90
2024/01/27 07:58:52;;;;;;;17.90;7.20;;;-0.10;99.90;;;;;;4958905;28;20054;-90
2024/01/27 08:01:19;;;;;;;20.47;7.97;;;0.00;99.90;;;;;;4959358;28;20042;-92
2024/01/27 08:03:44;;;;;;;23.50;8.57;;;0.00;99.90;;;;;;4959457;28;20043;-91
2024/01/27 08:06:27;;;;;;;14.83;7.10;;;0.10;99.90;;;;;;4960000;28;20042;-90
2024/01/27 08:08:53;;;;;;;14.03;6.90;;;0.20;99.90;;;;;;4964451;28;20031;-90
2024/01/27 08:11:18;;;;;;;20.10;7.47;;;0.20;99.90;;;;;;4948196;28;20029;-91
2024/01/27 08:13:44;;;;;;;15.20;6.23;;;0.30;99.90;;;;;;4964593;28;20039;-92
2024/01/27 08:16:12;;;;;;;14.70;6.43;;;0.40;99.90;;;;;;4964899;28;20763;-91
2024/01/27 08:18:43;;;;;;;12.73;5.80;;;0.40;99.90;;;;;;4965990;28;20497;-91
2024/01/27 08:21:09;;;;;;;12.07;5.70;;;0.50;99.90;;;;;;4963279;28;20110;-92
2024/01/27 08:23:35;;;;;;;14.03;5.60;;;0.60;99.90;;;;;;4964645;28;20858;-91
2024/01/27 08:26:00;;;;;;;17.90;5.87;;;0.70;99.90;;;;;;4968728;28;20119;-92
2024/01/27 08:28:26;;;;;;;12.73;5.53;;;0.70;99.90;;;;;;4964697;28;20031;-92
2024/01/27 08:30:51;;;;;;;13.50;5.57;;;0.80;99.90;;;;;;4965284;28;20031;-92
2024/01/27 08:33:17;;;;;;;18.23;5.40;;;0.90;99.90;;;;;;4969815;28;20031;-92
2024/01/27 08:35:43;;;;;;;17.57;5.87;;;1.00;99.90;;;;;;4974091;28;20394;-91
2024/01/27 08:38:11;;;;;;;13.97;5.30;;;1.10;99.90;;;;;;4977775;28;20035;-93
2024/01/27 08:40:36;;;;;;;13.17;5.03;;;1.30;99.90;;;;;;4974949;28;20423;-93
2024/01/27 08:43:02;;;;;;;11.90;5.07;;;1.40;99.90;;;;;;4979144;28;20057;-92
2024/01/27 08:45:28;;;;;;;13.00;5.67;;;1.60;99.90;;;;;;4975561;28;20030;-92
2024/01/27 08:47:53;;;;;;;13.13;6.27;;;1.80;99.90;;;;;;4976021;28;20022;-92
2024/01/27 08:50:19;;;;;;;14.80;5.60;;;1.90;99.90;;;;;;4975213;28;20023;-93
2024/01/27 08:52:46;;;;;;;16.63;5.60;;;2.00;99.90;;;;;;4980749;28;20038;-91
2024/01/27 08:55:12;;;;;;;15.30;6.83;;;2.10;99.90;;;;;;4976719;28;20026;-92
2024/01/27 08:57:37;;;;;;;17.43;6.07;;;2.20;99.90;;;;;;4970929;28;20038;-91
2024/01/27 09:00:04;;;;;;;15.60;5.37;;;2.40;99.90;;;;;;4974344;28;20015;-92
2024/01/27 09:02:29;;;;;;;18.57;5.90;;;2.50;99.90;;;;;;4975735;28;20090;-91
2024/01/27 09:04:56;;;;;;;13.17;6.43;;;2.50;99.90;;;;;;4972735;28;20106;-92
2024/01/27 09:07:21;;;;;;;17.80;6.73;;;2.60;99.90;;;;;;4974178;28;20054;-92
2024/01/27 09:09:47;;;;;;;12.67;5.87;;;2.60;99.90;;;;;;4974623;28;20452;-92
2024/01/27 09:12:13;;;;;;;12.20;5.73;;;2.60;99.90;;;;;;4975648;28;20030;-92
2024/01/27 09:14:38;;;;;;;13.33;5.07;;;2.70;99.90;;;;;;4977584;28;20145;-92
2024/01/27 09:17:04;;;;;;;23.37;5.70;;;2.70;99.90;;;;;;4976421;28;20023;-92
2024/01/27 09:19:29;;;;;;;16.00;6.07;;;2.80;99.90;;;;;;4977229;28;20483;-93
2024/01/27 09:21:55;;;;;;;10.63;4.90;;;2.80;99.90;;;;;;4975403;28;20032;-92
2024/01/27 09:24:21;;;;;;;13.63;4.87;;;2.90;99.90;;;;;;4973400;28;20042;-91
2024/01/27 09:26:46;;;;;;;14.77;4.50;;;2.90;99.90;;;;;;4959983;28;20086;-92
2024/01/27 09:29:12;;;;;;;11.33;4.47;;;3.00;99.90;;;;;;4957974;28;21000;-92
2024/01/27 09:31:37;;;;;;;14.73;4.73;;;3.10;99.90;;;;;;4976812;28;20862;-92
2024/01/27 09:34:03;;;;;;;13.00;5.37;;;3.10;99.90;;;;;;4973216;28;20983;-92
2024/01/27 09:36:29;;;;;;;18.97;6.33;;;3.10;99.90;;;;;;4973317;28;20031;-92
2024/01/27 09:38:54;;;;;;;14.23;4.70;;;3.10;99.90;;;;;;4976270;28;20051;-92
2024/01/27 09:41:20;;;;;;;8.60;4.03;;;3.10;99.90;;;;;;4970770;28;21336;-92
2024/01/27 09:43:47;;;;;;;12.07;4.07;;;3.20;99.90;;;;;;4967306;28;20031;-92
2024/01/27 09:46:14;;;;;;;12.77;4.90;;;3.30;99.90;;;;;;4968044;28;20483;-92
2024/01/27 09:48:40;;;;;;;10.90;4.87;;;3.30;99.90;;;;;;4967936;28;20447;-91
2024/01/27 09:51:07;;;;;;;14.03;4.60;;;3.40;99.90;;;;;;4968077;28;20109;-91
2024/01/27 09:53:33;;;;;;;15.50;4.23;;;3.40;99.90;;;;;;4966188;28;20031;-92
2024/01/27 09:56:01;;;;;;;10.37;4.50;;;3.40;99.90;;;;;;4966820;28;20365;-91
2024/01/27 09:58:28;;;;;;;14.83;4.70;;;3.50;99.90;;;;;;4948122;28;20041;-91
2024/01/27 10:00:56;;;;;;;16.80;4.50;;;3.50;99.90;;;;;;4964272;28;20026;-92
2024/01/27 10:03:24;;;;;;;11.83;4.47;;;3.50;99.90;;;;;;4965841;28;20031;-92
2024/01/27 10:05:52;;;;;;;9.43;4.20;;;3.60;99.90;;;;;;4967699;28;20059;-93
2024/01/27 10:08:18;;;;;;;13.87;4.43;;;3.60;99.90;;;;;;4967646;28;20033;-91
2024/01/27 10:10:44;;;;;;;18.57;4.70;;;3.70;99.90;;;;;;4969385;28;20035;-91
2024/01/27 10:13:12;;;;;;;10.23;4.00;;;3.70;99.90;;;;;;4969883;28;20019;-92
2024/01/27 10:15:37;;;;;;;15.47;4.90;;;3.80;99.90;;;;;;4971242;28;20053;-92
2024/01/27 10:18:07;;;;;;;14.07;4.10;;;3.80;99.90;;;;;;4971543;28;20054;-92
2024/01/27 10:20:33;;;;;;;14.83;3.73;;;3.90;99.90;;;;;;4970371;28;20063;-93
2024/01/27 10:23:09;;;;;;;9.63;3.70;;;3.90;99.90;;;;;;4970784;28;20054;-93
2024/01/27 10:25:41;;;;;;;7.80;3.20;;;3.90;99.90;;;;;;4970583;28;20031;-93
2024/01/27 10:28:08;;;;;;;9.83;3.00;;;4.00;99.90;;;;;;4969417;28;20023;-92
2024/01/27 10:30:34;;;;;;;12.13;3.90;;;4.20;99.90;;;;;;4970894;28;20495;-93
2024/01/27 10:33:00;;;;;;;14.10;3.70;;;4.40;99.90;;;;;;4972762;28;20043;-92
2024/01/27 10:35:26;;;;;;;13.47;3.80;;;4.50;99.90;;;;;;4978876;28;20326;-92
2024/01/27 10:37:53;;;;;;;13.67;3.60;;;4.70;99.90;;;;;;4969710;28;20028;-92
2024/01/27 10:40:18;;;;;;;11.67;3.23;;;4.90;99.90;;;;;;4968190;28;20035;-92
2024/01/27 10:42:45;;;;;;;11.80;3.73;;;5.00;99.90;;;;;;4967677;28;20031;-91
2024/01/27 10:45:11;;;;;;;14.57;3.50;;;5.10;99.90;;;;;;4965287;28;20105;-92
2024/01/27 10:47:38;;;;;;;18.87;3.97;;;5.00;99.90;;;;;;4963864;28;20443;-91
2024/01/27 10:50:08;;;;;;;11.00;4.37;;;5.00;99.90;;;;;;4963687;28;20122;-92
2024/01/27 10:52:38;;;;;;;14.33;4.63;;;5.00;99.90;;;;;;4963571;28;20113;-91
2024/01/27 10:55:07;;;;;;;11.83;4.60;;;5.00;99.90;;;;;;4965162;28;20482;-91
2024/01/27 10:57:36;;;;;;;10.27;4.50;;;5.00;99.90;;;;;;4965153;28;20026;-93
2024/01/27 11:00:06;;;;;;;12.63;4.37;;;4.90;99.90;;;;;;4967906;28;20502;-92
2024/01/27 11:02:33;;;;;;;12.87;4.37;;;4.90;99.90;;;;;;4966138;28;20050;-93
2024/01/27 11:05:03;;;;;;;11.23;4.47;;;4.80;99.90;;;;;;4962315;28;20045;-92
2024/01/27 11:07:35;;;;;;;11.43;4.13;;;4.80;99.90;;;;;;4964764;28;20034;-91
2024/01/27 11:10:00;;;;;;;17.53;4.27;;;4.80;99.90;;;;;;4964060;28;21423;-92
2024/01/27 11:12:27;;;;;;;10.87;4.20;;;4.90;99.90;;;;;;4962880;28;20023;-91
2024/01/27 11:14:53;;;;;;;12.47;4.57;;;4.90;99.90;;;;;;4961583;28;20590;-91
2024/01/27 11:17:19;;;;;;;15.07;3.90;;;5.00;99.90;;;;;;4959738;28;20030;-91
2024/01/27 11:19:46;;;;;;;11.10;4.07;;;5.00;99.90;;;;;;4960270;28;20070;-91
2024/01/27 11:22:31;;;;;;;12.73;3.87;;;5.00;99.90;;;;;;4960453;28;20019;-91
2024/01/27 11:25:16;;;;;;;10.70;3.88;;;5.00;99.90;;;;;;4959824;28;20213;-92
2024/01/27 11:27:44;;;;;;;8.55;3.92;;;5.00;99.90;;;;;;4953274;28;20070;-92
2024/01/27 11:30:37;;;;;;;13.90;4.43;;;5.00;99.90;;;;;;4963255;28;20600;-92
2024/01/27 11:33:04;;;;;;;13.37;3.50;;;5.10;99.90;;;;;;4967133;28;20040;-92
2024/01/27 11:35:30;;;;;;;9.10;3.13;;;5.20;99.90;;;;;;4971290;28;20117;-91
2024/01/27 11:37:55;;;;;;;10.33;3.83;;;5.20;99.90;;;;;;4962139;28;20129;-91
2024/01/27 11:40:21;;;;;;;11.67;3.40;;;5.20;99.90;;;;;;4960569;28;20497;-92
2024/01/27 11:43:01;;;;;;;13.83;3.10;;;5.30;99.90;;;;;;4961792;28;20050;-92
2024/01/27 11:45:28;;;;;;;13.20;3.30;;;5.30;99.90;;;;;;4961817;28;20042;-90
2024/01/27 11:47:55;;;;;;;9.10;2.90;;;5.30;99.90;;;;;;4962275;28;21442;-91
2024/01/27 11:50:21;;;;;;;8.27;3.23;;;5.30;99.90;;;;;;4962059;28;20551;-92
2024/01/27 11:52:46;;;;;;;9.30;2.93;;;5.30;99.90;;;;;;4962338;28;20058;-92
2024/01/27 11:55:15;;;;;;;8.00;2.87;;;5.40;99.90;;;;;;4960631;28;20035;-92
2024/01/27 11:57:41;;;;;;;13.43;3.03;;;5.40;99.90;;;;;;4961048;28;20030;-92
2024/01/27 12:00:09;;;;;;;8.63;2.57;;;5.40;99.90;;;;;;4960638;28;20185;-91
2024/01/27 12:02:35;;;;;;;7.47;2.73;;;5.50;99.90;;;;;;4960882;28;20062;-91
2024/01/27 12:05:01;;;;;;;6.87;2.77;;;5.50;99.90;;;;;;4961602;28;20118;-90
2024/01/27 12:07:26;;;;;;;10.10;2.90;;;5.60;99.90;;;;;;4962107;28;20591;-92
2024/01/27 12:09:52;;;;;;;7.63;2.40;;;5.60;99.90;;;;;;4962860;28;20046;-91
2024/01/27 12:12:18;;;;;;;7.60;2.33;;;5.70;99.90;;;;;;4963641;28;20697;-90
2024/01/27 12:14:51;;;;;;;6.37;2.67;;;5.80;99.90;;;;;;4963994;28;20030;-91
2024/01/27 12:17:18;;;;;;;8.90;2.63;;;5.80;99.90;;;;;;4962884;28;20039;-91
2024/01/27 12:19:48;;;;;;;12.03;2.87;;;6.00;99.90;;;;;;4963122;28;20037;-91
2024/01/27 12:22:26;;;;;;;9.07;3.00;;;6.00;99.90;;;;;;4962075;28;20058;-90
2024/01/27 12:24:53;;;;;;;10.47;3.13;;;6.10;99.90;;;;;;4961621;28;20117;-91
2024/01/27 12:27:19;;;;;;;10.10;2.80;;;6.20;99.90;;;;;;4962594;28;20031;-89
2024/01/27 12:29:47;;;;;;;10.23;3.10;;;6.30;99.90;;;;;;4963546;28;20031;-90
2024/01/27 12:32:12;;;;;;;11.63;3.03;;;6.40;99.90;;;;;;4964706;28;20494;-88
2024/01/27 12:34:42;;;;;;;7.97;3.03;;;6.50;99.90;;;;;;4966820;28;20034;-89
2024/01/27 12:37:10;;;;;;;8.10;3.30;;;6.70;99.90;;;;;;4966536;28;20018;-88
2024/01/27 12:39:36;;;;;;;9.43;2.60;;;6.70;99.90;;;;;;4965843;28;20023;-89
2024/01/27 12:42:01;;;;;;;8.97;3.23;;;6.70;99.90;;;;;;4963291;28;21458;-88
2024/01/27 12:44:27;;;;;;;8.07;2.77;;;6.70;99.90;;;;;;4961524;28;20035;-88
2024/01/27 12:46:52;;;;;;;9.13;3.20;;;6.80;99.90;;;;;;4961945;28;20027;-88